createdAt,value
2022-09-20T00:01:23.989Z,9.70
2022-09-20T00:03:56.646Z,7.07
2022-09-20T00:06:26.732Z,11.40
2022-09-20T00:08:54.486Z,11.57
2022-09-20T00:11:24.454Z,8.05
2022-09-20T00:13:54.884Z,8.10
2022-09-20T00:16:28.211Z,7.28
2022-09-20T00:18:57.001Z,7.28
2022-09-20T00:21:29.686Z,5.32
2022-09-20T00:24:00.160Z,8.18
2022-09-20T00:26:28.841Z,7.18
2022-09-20T00:28:57.798Z,7.03
2022-09-20T00:31:24.995Z,8.52
2022-09-20T00:34:14.037Z,6.53
2022-09-20T00:36:53.076Z,7.38
2022-09-20T00:39:20.055Z,4.28
2022-09-20T00:41:47.282Z,4.28
2022-09-20T00:44:55.438Z,4.90
2022-09-20T00:47:31.998Z,3.95
2022-09-20T00:50:24.863Z,4.90
2022-09-20T00:53:24.731Z,5.43
2022-09-20T00:56:05.546Z,3.17
2022-09-20T00:58:39.286Z,3.47
2022-09-20T01:01:06.941Z,5.55
2022-09-20T01:03:37.101Z,20.00
2022-09-20T01:06:08.481Z,5.73
2022-09-20T01:08:36.479Z,5.78
2022-09-20T01:11:03.576Z,3.20
2022-09-20T01:13:31.182Z,9.63
2022-09-20T01:16:00.606Z,4.28
2022-09-20T01:18:29.526Z,4.50
2022-09-20T01:20:58.144Z,6.43
2022-09-20T01:23:51.998Z,5.75
2022-09-20T01:26:40.650Z,5.57
2022-09-20T01:29:18.449Z,3.40
2022-09-20T01:31:50.727Z,4.20
2022-09-20T01:34:37.535Z,4.75
2022-09-20T01:37:14.660Z,3.80
2022-09-20T01:39:53.598Z,2.70
2022-09-20T01:42:29.992Z,3.47
2022-09-20T01:45:26.269Z,8.68
2022-09-20T01:48:02.951Z,4.32
2022-09-20T01:51:07.510Z,3.47
2022-09-20T01:54:01.750Z,2.22
2022-09-20T01:56:50.430Z,4.10
2022-09-20T01:59:32.721Z,8.73
2022-09-20T02:02:26.734Z,4.50
2022-09-20T02:05:23.000Z,2.30
2022-09-20T02:07:55.903Z,3.60
2022-09-20T02:10:51.199Z,2.20
2022-09-20T02:13:39.877Z,6.10
2022-09-20T02:16:12.682Z,6.90
2022-09-20T02:18:45.524Z,5.03
2022-09-20T02:21:31.145Z,3.80
2022-09-20T02:24:16.560Z,3.30
2022-09-20T02:27:11.674Z,4.25
2022-09-20T02:29:57.238Z,9.23
2022-09-20T02:32:56.385Z,7.00
2022-09-20T02:35:36.391Z,6.30
2022-09-20T02:38:24.793Z,6.75
2022-09-20T02:41:09.937Z,3.38
2022-09-20T02:44:05.645Z,4.50
2022-09-20T02:46:47.020Z,2.80
2022-09-20T02:49:49.521Z,3.42
2022-09-20T02:52:46.789Z,8.68
2022-09-20T02:55:19.172Z,7.93
2022-09-20T02:58:09.605Z,3.55
2022-09-20T03:01:02.176Z,4.13
2022-09-20T03:03:40.027Z,3.40
2022-09-20T03:06:22.522Z,4.47
2022-09-20T03:08:58.645Z,6.10
2022-09-20T03:11:46.770Z,8.43
2022-09-20T03:14:27.760Z,4.97
2022-09-20T03:17:36.720Z,5.82
2022-09-20T03:20:12.971Z,9.77
2022-09-20T03:22:50.098Z,7.55
2022-09-20T03:25:39.342Z,5.47
2022-09-20T03:28:29.685Z,7.70
2022-09-20T03:31:20.765Z,5.75
2022-09-20T03:36:37.042Z,4.40
2022-09-20T03:39:45.376Z,8.10
2022-09-20T03:42:12.310Z,9.68
2022-09-20T03:45:17.949Z,7.32
2022-09-20T03:48:10.989Z,7.75
2022-09-20T03:50:59.302Z,11.70
2022-09-20T03:53:35.008Z,8.82
2022-09-20T03:56:40.622Z,7.63
2022-09-20T03:59:37.657Z,11.73
2022-09-20T04:02:07.723Z,4.68
2022-09-20T04:05:11.787Z,3.87
2022-09-20T04:07:59.718Z,6.45
2022-09-20T04:11:06.165Z,4.22
2022-09-20T04:13:38.196Z,6.88
2022-09-20T04:16:23.803Z,5.82
2022-09-20T04:19:22.612Z,8.00
2022-09-20T04:22:00.435Z,5.00
2022-09-20T04:24:30.160Z,11.30
2022-09-20T04:27:01.946Z,6.05
2022-09-20T04:29:53.232Z,5.93
2022-09-20T04:32:30.863Z,5.82
2022-09-20T04:35:41.197Z,4.70
2022-09-20T04:38:14.942Z,6.38
2022-09-20T04:41:00.273Z,6.05
2022-09-20T04:44:04.936Z,4.70
2022-09-20T04:47:07.025Z,8.82
2022-09-20T04:49:45.906Z,5.93
2022-09-20T04:52:54.341Z,5.82
2022-09-20T04:55:39.831Z,10.07
2022-09-20T04:58:18.970Z,5.82
2022-09-20T05:00:57.662Z,9.20
2022-09-20T05:03:51.737Z,4.15
2022-09-20T05:06:55.994Z,5.75
2022-09-20T05:10:01.536Z,9.18
2022-09-20T05:12:53.505Z,3.88
2022-09-20T05:15:23.497Z,4.22
2022-09-20T05:18:18.058Z,7.60
2022-09-20T05:20:59.551Z,7.47
2022-09-20T05:23:51.910Z,6.80
2022-09-20T05:26:43.542Z,6.13
2022-09-20T05:29:25.589Z,4.93
2022-09-20T05:32:03.723Z,5.88
2022-09-20T05:34:42.551Z,25.65
2022-09-20T05:37:31.728Z,35.55
2022-09-20T05:40:29.384Z,24.10
2022-09-20T05:43:05.931Z,17.40
2022-09-20T05:45:49.942Z,8.73
2022-09-20T05:48:44.578Z,5.90
2022-09-20T05:51:34.107Z,7.70
2022-09-20T05:54:30.593Z,7.68
2022-09-20T05:57:08.773Z,6.40
2022-09-20T05:59:45.382Z,6.25
2022-09-20T06:02:30.101Z,4.93
2022-09-20T06:05:17.530Z,6.50
2022-09-20T06:07:59.358Z,4.80
2022-09-20T06:10:26.206Z,6.90
2022-09-20T06:13:00.747Z,5.68
2022-09-20T06:16:01.174Z,8.85
2022-09-20T06:18:49.006Z,11.82
2022-09-20T06:21:46.929Z,8.82
2022-09-20T06:24:43.314Z,12.07
2022-09-20T06:27:22.170Z,7.13
2022-09-20T06:29:55.046Z,6.70
2022-09-20T06:32:21.952Z,6.78
2022-09-20T06:34:50.077Z,6.03
2022-09-20T06:38:05.217Z,10.13
2022-09-20T06:41:19.964Z,3.67
2022-09-20T06:43:48.692Z,5.35
2022-09-20T06:46:16.279Z,3.30
2022-09-20T06:48:43.248Z,5.30
2022-09-20T06:51:11.181Z,6.85
2022-09-20T06:53:41.085Z,5.15
2022-09-20T06:56:12.629Z,5.18
2022-09-20T06:58:39.521Z,5.55
2022-09-20T07:01:06.492Z,2.88
2022-09-20T07:03:33.621Z,5.72
2022-09-20T07:06:00.829Z,5.38
2022-09-20T07:08:28.050Z,4.47
2022-09-20T07:10:54.986Z,3.92
2022-09-20T07:13:22.610Z,4.13
2022-09-20T07:15:50.020Z,4.47
2022-09-20T07:18:16.973Z,6.22
2022-09-20T07:20:44.802Z,7.75
2022-09-20T07:23:11.721Z,7.10
2022-09-20T07:25:38.699Z,5.43
2022-09-20T07:28:05.637Z,11.43
2022-09-20T07:30:32.542Z,4.57
2022-09-20T07:33:00.727Z,7.32
2022-09-20T07:35:28.490Z,17.25
2022-09-20T07:37:58.981Z,8.05
2022-09-20T07:40:26.913Z,8.10
2022-09-20T07:45:39.799Z,9.75
2022-09-20T07:48:10.272Z,8.95
2022-09-20T07:50:37.358Z,9.05
2022-09-20T07:53:04.965Z,7.30
2022-09-20T07:55:32.090Z,6.30
2022-09-20T07:57:59.069Z,7.68
2022-09-20T08:00:26.676Z,7.55
2022-09-20T08:02:59.353Z,5.95
2022-09-20T08:05:27.207Z,4.72
2022-09-20T08:07:55.512Z,4.07
2022-09-20T08:10:22.496Z,5.65
2022-09-20T08:15:37.344Z,8.05
2022-09-20T08:18:04.376Z,5.50
2022-09-20T08:20:31.294Z,3.38
2022-09-20T08:23:22.167Z,4.63
2022-09-20T08:25:47.385Z,6.88
2022-09-20T08:28:14.761Z,5.60
2022-09-20T08:30:41.813Z,4.35
2022-09-20T08:33:08.800Z,4.00
2022-09-20T08:35:38.231Z,5.43
2022-09-20T08:40:52.918Z,4.22
2022-09-20T08:43:22.417Z,3.00
2022-09-20T08:45:49.739Z,3.40
2022-09-20T08:48:18.031Z,2.47
2022-09-20T08:50:45.223Z,3.25
2022-09-20T08:53:14.907Z,3.42
2022-09-20T08:55:43.465Z,2.42
2022-09-20T08:58:12.612Z,2.47
2022-09-20T09:00:40.846Z,1.85
2022-09-20T09:03:13.044Z,1.92
2022-09-20T09:05:52.812Z,1.58
2022-09-20T09:08:28.316Z,2.45
2022-09-20T09:11:24.609Z,2.38
2022-09-20T09:14:01.433Z,1.83
2022-09-20T09:16:35.829Z,1.10
2022-09-20T09:19:36.297Z,2.15
2022-09-20T09:22:05.720Z,2.35
2022-09-20T09:24:32.677Z,1.45
2022-09-20T09:27:17.268Z,1.48
2022-09-20T09:29:54.749Z,1.60
2022-09-20T09:32:32.942Z,2.05
2022-09-20T09:35:24.148Z,1.63
2022-09-20T09:40:22.719Z,1.45
2022-09-20T09:42:54.598Z,2.90
2022-09-20T09:45:39.266Z,1.20
2022-09-20T09:48:24.074Z,1.42
2022-09-20T09:50:53.394Z,1.67
2022-09-20T09:53:23.828Z,2.97
2022-09-20T09:56:25.283Z,2.75
2022-09-20T09:59:19.226Z,1.93
2022-09-20T10:02:06.729Z,3.25
2022-09-20T10:04:52.465Z,1.75
2022-09-20T10:07:34.338Z,1.52
2022-09-20T10:10:34.391Z,2.45
2022-09-20T10:13:23.657Z,1.40
2022-09-20T10:16:16.180Z,1.90
2022-09-20T10:19:07.303Z,1.75
2022-09-20T10:24:13.462Z,2.30
2022-09-20T10:26:44.210Z,1.40
2022-09-20T10:29:43.401Z,1.25
2022-09-20T10:32:28.450Z,1.60
2022-09-20T10:35:14.502Z,1.50
2022-09-20T10:37:50.542Z,1.70
2022-09-20T10:40:17.529Z,4.82
2022-09-20T10:43:09.486Z,4.95
2022-09-20T10:46:08.664Z,1.92
2022-09-20T10:48:42.702Z,1.70
2022-09-20T10:51:11.180Z,3.05
2022-09-20T10:53:50.377Z,2.15
2022-09-20T10:56:17.245Z,1.95
2022-09-20T10:59:22.550Z,1.50
2022-09-20T11:01:58.519Z,2.63
2022-09-20T11:04:35.199Z,2.28
2022-09-20T11:07:21.974Z,2.05
2022-09-20T11:09:58.126Z,4.95
2022-09-20T11:12:27.948Z,3.33
2022-09-20T11:14:59.881Z,2.67
2022-09-20T11:17:35.349Z,1.40
2022-09-20T11:20:20.839Z,3.30
2022-09-20T11:22:59.219Z,1.83
2022-09-20T11:25:58.785Z,1.52
2022-09-20T11:28:25.978Z,3.83
2022-09-20T11:31:14.190Z,3.08
2022-09-20T11:34:14.063Z,4.38
2022-09-20T11:36:53.594Z,2.28
2022-09-20T11:39:37.338Z,1.73
2022-09-20T11:42:06.665Z,1.90
2022-09-20T11:44:39.956Z,2.63
2022-09-20T11:47:36.537Z,2.00
2022-09-20T11:50:39.201Z,1.75
2022-09-20T11:53:15.312Z,1.90
2022-09-20T11:55:57.436Z,1.63
2022-09-20T11:58:25.809Z,3.40
2022-09-20T12:00:55.685Z,2.13
2022-09-20T12:03:37.726Z,2.17
2022-09-20T12:06:08.068Z,2.40
2022-09-20T12:08:40.908Z,2.42
2022-09-20T12:11:13.741Z,2.45
2022-09-20T12:13:43.620Z,1.73
2022-09-20T12:16:18.269Z,1.85
2022-09-20T12:18:56.857Z,1.70
2022-09-20T12:21:23.878Z,2.17
2022-09-20T12:23:56.815Z,1.73
2022-09-20T12:26:26.593Z,3.60
2022-09-20T12:28:55.950Z,3.55
2022-09-20T12:31:26.404Z,1.63
2022-09-20T12:34:12.070Z,1.77
2022-09-20T12:36:52.243Z,1.67
2022-09-20T12:39:30.075Z,2.87
2022-09-20T12:42:05.105Z,2.80
2022-09-20T12:44:50.306Z,3.53
2022-09-20T12:47:37.625Z,1.80
2022-09-20T12:50:32.258Z,2.45
2022-09-20T12:53:05.357Z,2.10
2022-09-20T12:56:04.871Z,2.42
2022-09-20T12:58:51.576Z,1.20
2022-09-20T13:01:18.533Z,1.77
2022-09-20T13:03:48.270Z,2.25
2022-09-20T13:06:16.624Z,2.10
2022-09-20T13:09:08.663Z,2.00
2022-09-20T13:11:42.359Z,2.45
2022-09-20T13:14:23.733Z,2.15
2022-09-20T13:16:59.190Z,2.13
2022-09-20T13:19:42.068Z,2.65
2022-09-20T13:22:14.975Z,1.40
2022-09-20T13:24:46.699Z,1.30
2022-09-20T13:27:41.081Z,3.00
2022-09-20T13:30:17.647Z,2.63
2022-09-20T13:32:45.038Z,1.60
2022-09-20T13:35:15.081Z,1.73
2022-09-20T13:38:02.286Z,5.60
2022-09-20T13:40:36.822Z,1.85
2022-09-20T13:43:23.238Z,3.22
2022-09-20T13:45:57.656Z,1.70
2022-09-20T13:48:29.436Z,0.93
2022-09-20T13:50:57.394Z,4.10
2022-09-20T13:53:42.365Z,1.63
2022-09-20T13:56:22.969Z,1.45
2022-09-20T13:58:51.650Z,1.88
2022-09-20T14:01:30.252Z,5.88
2022-09-20T14:04:18.573Z,2.03
2022-09-20T14:06:46.070Z,1.48
2022-09-20T14:09:27.208Z,2.38
2022-09-20T14:11:55.029Z,1.90
2022-09-20T14:14:24.382Z,1.90
2022-09-20T14:16:53.876Z,2.80
2022-09-20T14:19:27.429Z,1.85
2022-09-20T14:21:55.961Z,3.05
2022-09-20T14:24:32.099Z,1.27
2022-09-20T14:27:13.179Z,2.20
2022-09-20T14:29:46.018Z,2.75
2022-09-20T14:32:25.423Z,1.10
2022-09-20T14:35:07.249Z,1.27
2022-09-20T14:37:54.379Z,1.88
2022-09-20T14:40:30.477Z,1.08
2022-09-20T14:43:06.040Z,1.35
2022-09-20T14:45:35.587Z,1.67
2022-09-20T14:48:06.890Z,3.92
2022-09-20T14:50:45.741Z,3.35
2022-09-20T14:53:12.595Z,2.22
2022-09-20T14:55:42.445Z,1.58
2022-09-20T14:58:15.176Z,1.35
2022-09-20T15:00:53.867Z,1.70
2022-09-20T15:03:41.589Z,2.13
2022-09-20T15:06:12.960Z,1.48
2022-09-20T15:08:45.468Z,4.65
2022-09-20T15:11:18.146Z,3.60
2022-09-20T15:13:45.701Z,2.17
2022-09-20T15:16:14.662Z,1.73
2022-09-20T15:18:43.152Z,2.40
2022-09-20T15:21:13.877Z,1.17
2022-09-20T15:23:41.117Z,3.08
2022-09-20T15:26:11.077Z,2.05
2022-09-20T15:28:38.024Z,1.17
2022-09-20T15:31:05.185Z,1.85
2022-09-20T15:33:32.829Z,1.52
2022-09-20T15:36:02.535Z,4.38
2022-09-20T15:38:29.601Z,1.83
2022-09-20T15:40:56.523Z,1.98
2022-09-20T15:43:32.610Z,1.30
2022-09-20T15:46:01.969Z,1.75
2022-09-20T15:48:30.846Z,2.42
2022-09-20T15:51:07.698Z,3.38
2022-09-20T15:53:38.475Z,2.17
2022-09-20T15:56:21.268Z,8.48
2022-09-20T15:58:51.023Z,3.97
2022-09-20T16:01:19.612Z,1.60
2022-09-20T16:03:47.025Z,7.45
2022-09-20T16:06:14.210Z,2.92
2022-09-20T16:08:43.072Z,3.83
2022-09-20T16:11:17.264Z,3.17
2022-09-20T16:13:47.366Z,3.80
2022-09-20T16:16:15.855Z,5.45
2022-09-20T16:19:01.217Z,3.78
2022-09-20T16:21:28.386Z,8.10
2022-09-20T16:23:56.870Z,7.40
2022-09-20T16:26:25.984Z,5.43
2022-09-20T16:28:53.530Z,6.63
2022-09-20T16:31:29.323Z,23.10
2022-09-20T16:33:56.782Z,34.80
2022-09-20T16:36:27.412Z,31.27
2022-09-20T16:41:24.185Z,26.42
2022-09-20T16:43:52.297Z,19.30
2022-09-20T16:46:25.169Z,23.25
2022-09-20T16:48:53.780Z,16.52
2022-09-20T16:51:26.122Z,12.18
2022-09-20T16:53:54.984Z,8.68
2022-09-20T16:56:26.092Z,6.18
2022-09-20T16:58:54.411Z,12.45
2022-09-20T17:01:22.133Z,9.30
2022-09-20T17:03:49.129Z,3.40
2022-09-20T17:06:16.981Z,3.42
2022-09-20T17:08:46.846Z,5.75
2022-09-20T17:11:17.280Z,4.38
2022-09-20T17:13:45.388Z,4.10
2022-09-20T17:16:15.228Z,3.75
2022-09-20T17:18:43.335Z,3.33
2022-09-20T17:21:17.656Z,8.00
2022-09-20T17:23:50.833Z,92.03
2022-09-20T17:26:23.142Z,51.35
2022-09-20T17:28:51.604Z,8.15
2022-09-20T17:31:21.266Z,8.98
2022-09-20T17:33:48.218Z,10.30
2022-09-20T17:36:24.898Z,3.10
2022-09-20T17:38:54.212Z,3.30
2022-09-20T17:41:22.172Z,5.50
2022-09-20T17:43:57.409Z,3.70
2022-09-20T17:46:29.938Z,2.92
2022-09-20T17:49:01.276Z,3.33
2022-09-20T17:51:36.880Z,3.85
2022-09-20T17:54:03.993Z,3.58
2022-09-20T17:56:31.421Z,3.35
2022-09-20T17:59:00.264Z,4.30
2022-09-20T18:01:29.054Z,4.57
2022-09-20T18:03:58.446Z,3.25
2022-09-20T18:06:30.952Z,14.98
2022-09-20T18:09:03.212Z,12.20
2022-09-20T18:11:34.145Z,7.28
2022-09-20T18:16:30.972Z,10.13
2022-09-20T18:18:59.874Z,8.00
2022-09-20T18:21:29.132Z,16.88
2022-09-20T18:23:57.390Z,19.45
2022-09-20T18:26:26.564Z,18.20
2022-09-20T18:28:57.805Z,14.18
2022-09-20T18:31:29.991Z,15.23
2022-09-20T18:33:57.832Z,11.55
2022-09-20T18:36:25.696Z,17.00
2022-09-20T18:38:54.586Z,15.05
2022-09-20T18:41:25.561Z,31.55
2022-09-20T18:46:23.806Z,16.92
2022-09-20T18:48:52.112Z,12.65
2022-09-20T18:51:19.499Z,19.77
2022-09-20T18:53:47.095Z,21.48
2022-09-20T18:56:29.009Z,26.67
2022-09-20T18:58:58.401Z,26.05
2022-09-20T19:01:30.670Z,23.27
2022-09-20T19:04:03.360Z,15.73
2022-09-20T19:06:39.706Z,19.88
2022-09-20T19:09:17.662Z,14.75
2022-09-20T19:11:51.869Z,23.23
2022-09-20T19:14:48.386Z,30.85
2022-09-20T19:17:24.639Z,40.35
2022-09-20T19:20:00.509Z,30.67
2022-09-20T19:22:51.524Z,42.13
2022-09-20T19:25:33.017Z,26.60
2022-09-20T19:28:00.042Z,11.02
2022-09-20T19:30:27.409Z,7.07
2022-09-20T19:32:54.702Z,10.10
2022-09-20T19:35:32.259Z,7.82
2022-09-20T19:38:15.612Z,6.68
2022-09-20T19:40:46.558Z,9.55
2022-09-20T19:43:35.113Z,8.90
2022-09-20T19:46:04.910Z,7.75
2022-09-20T19:48:48.765Z,6.22
2022-09-20T19:51:17.148Z,3.63
2022-09-20T19:53:44.258Z,3.65
2022-09-20T19:56:34.129Z,5.32
2022-09-20T19:59:01.393Z,3.85
2022-09-20T20:01:28.646Z,7.43
2022-09-20T20:03:55.983Z,5.97
2022-09-20T20:06:42.879Z,4.32
2022-09-20T20:09:16.689Z,3.67
2022-09-20T20:12:07.685Z,4.82
2022-09-20T20:14:52.404Z,3.90
2022-09-20T20:17:36.778Z,5.57
2022-09-20T20:20:33.985Z,6.15
2022-09-20T20:23:19.649Z,4.32
2022-09-20T20:26:05.818Z,4.32
2022-09-20T20:28:33.079Z,7.82
2022-09-20T20:31:02.340Z,4.43
2022-09-20T20:33:30.854Z,3.45
2022-09-20T20:35:59.925Z,3.00
2022-09-20T20:38:28.039Z,6.82
2022-09-20T20:41:10.226Z,3.40
2022-09-20T20:43:39.259Z,3.58
2022-09-20T20:46:08.958Z,3.08
2022-09-20T20:48:37.008Z,5.25
2022-09-20T20:51:12.991Z,4.47
2022-09-20T20:53:45.001Z,4.88
2022-09-20T20:56:14.286Z,3.72
2022-09-20T20:58:43.491Z,3.13
2022-09-20T21:01:19.030Z,3.85
2022-09-20T21:03:52.119Z,4.70
2022-09-20T21:06:21.105Z,3.85
2022-09-20T21:08:49.834Z,4.30
2022-09-20T21:11:25.962Z,3.85
2022-09-20T21:13:54.613Z,4.03
2022-09-20T21:16:24.115Z,5.07
2022-09-20T21:18:51.753Z,3.58
2022-09-20T21:21:27.723Z,5.20
2022-09-20T21:23:56.733Z,5.30
2022-09-20T21:26:25.363Z,2.90
2022-09-20T21:28:54.549Z,2.60
2022-09-20T21:31:23.988Z,2.53
2022-09-20T21:33:51.447Z,2.95
2022-09-20T21:36:22.023Z,3.15
2022-09-20T21:38:49.079Z,3.45
2022-09-20T21:41:36.326Z,4.22
2022-09-20T21:44:05.039Z,4.32
2022-09-20T21:46:33.371Z,3.72
2022-09-20T21:49:04.107Z,2.58
2022-09-20T21:51:31.991Z,7.07
2022-09-20T21:54:01.631Z,2.50
2022-09-20T21:56:36.650Z,5.25
2022-09-20T21:59:04.740Z,2.92
2022-09-20T22:04:14.377Z,3.15
2022-09-20T22:06:43.202Z,2.22
2022-09-20T22:09:12.853Z,2.63
2022-09-20T22:11:49.288Z,3.00
2022-09-20T22:14:19.222Z,4.07
2022-09-20T22:16:48.456Z,3.00
2022-09-20T22:19:17.240Z,3.58
2022-09-20T22:21:46.037Z,5.70
2022-09-20T22:24:14.304Z,2.95
2022-09-20T22:26:43.872Z,2.15
2022-09-20T22:29:11.647Z,3.88
2022-09-20T22:31:44.978Z,9.10
2022-09-20T22:34:14.781Z,2.70
2022-09-20T22:36:42.522Z,2.08
2022-09-20T22:39:11.611Z,3.08
2022-09-20T22:41:39.780Z,2.70
2022-09-20T22:44:06.777Z,4.15
2022-09-20T22:46:34.849Z,2.58
2022-09-20T22:49:04.331Z,2.25
2022-09-20T22:51:33.421Z,4.45
2022-09-20T22:54:04.700Z,4.70
2022-09-20T22:56:32.217Z,4.57
2022-09-20T22:59:04.878Z,3.30
2022-09-20T23:01:41.508Z,2.78
2022-09-20T23:04:17.781Z,2.65
2022-09-20T23:06:51.906Z,4.05
2022-09-20T23:09:19.111Z,3.75
2022-09-20T23:11:46.845Z,5.40
2022-09-20T23:14:16.637Z,2.53
2022-09-20T23:16:44.518Z,1.83
2022-09-20T23:19:12.626Z,1.85
2022-09-20T23:21:41.024Z,2.00
2022-09-20T23:24:10.295Z,3.30
2022-09-20T23:26:39.016Z,3.35
2022-09-20T23:29:14.553Z,3.90
2022-09-20T23:31:46.116Z,2.35
2022-09-20T23:34:14.961Z,3.05
2022-09-20T23:36:42.648Z,1.67
2022-09-20T23:39:10.538Z,2.22
2022-09-20T23:41:38.229Z,4.03
2022-09-20T23:44:06.795Z,2.15
2022-09-20T23:46:34.501Z,2.58
2022-09-20T23:49:02.263Z,2.28
2022-09-20T23:51:30.773Z,2.88
2022-09-20T23:53:58.420Z,2.05
2022-09-20T23:56:25.496Z,1.27
2022-09-20T23:58:52.522Z,3.03
